sensor_id;sensor_type;location;lat;lon;timestamp;temperature;humidity
44447;DHT22;30152;52.066;5.358;2024-01-30T07:26:12;8.60;99.90
44447;DHT22;30152;52.066;5.358;2024-01-30T07:35:56;8.70;99.90
44447;DHT22;30152;52.066;5.358;2024-01-30T07:55:25;9.20;99.90
44447;DHT22;30152;52.066;5.358;2024-01-30T08:07:48;9.80;99.90
44447;DHT22;30152;52.066;5.358;2024-01-30T08:10:14;9.40;99.90
44447;DHT22;30152;52.066;5.358;2024-01-30T08:19:58;9.90;99.90
44447;DHT22;30152;52.066;5.358;2024-01-30T08:34:34;10.40;99.90
44447;DHT22;30152;52.066;5.358;2024-01-30T08:41:51;10.80;99.90
44447;DHT22;30152;52.066;5.358;2024-01-30T08:46:44;10.40;99.90
44447;DHT22;30152;52.066;5.358;2024-01-30T08:51:38;10.70;99.90
44447;DHT22;30152;52.066;5.358;2024-01-30T08:56:30;10.90;99.90
44447;DHT22;30152;52.066;5.358;2024-01-30T08:58:56;11.00;99.90
44447;DHT22;30152;52.066;5.358;2024-01-30T09:13:35;12.70;99.90
44447;DHT22;30152;52.066;5.358;2024-01-30T09:16:01;11.80;99.90
44447;DHT22;30152;52.066;5.358;2024-01-30T09:25:45;11.40;99.90
44447;DHT22;30152;52.066;5.358;2024-01-30T09:33:02;11.00;99.90
44447;DHT22;30152;52.066;5.358;2024-01-30T09:45:17;11.40;99.90
44447;DHT22;30152;52.066;5.358;2024-01-30T09:57:30;11.40;99.90
44447;DHT22;30152;52.066;5.358;2024-01-30T10:02:22;12.20;99.90
44447;DHT22;30152;52.066;5.358;2024-01-30T10:07:15;11.50;99.90
44447;DHT22;30152;52.066;5.358;2024-01-30T10:17:11;11.70;99.90
44447;DHT22;30152;52.066;5.358;2024-01-30T10:19:38;11.10;99.90
44447;DHT22;30152;52.066;5.358;2024-01-30T10:22:04;11.40;99.90
44447;DHT22;30152;52.066;5.358;2024-01-30T10:29:24;11.70;99.90
44447;DHT22;30152;52.066;5.358;2024-01-30T10:34:29;11.80;99.90
44447;DHT22;30152;52.066;5.358;2024-01-30T10:39:43;11.90;99.90
44447;DHT22;30152;52.066;5.358;2024-01-30T10:49:54;11.60;99.90
44447;DHT22;30152;52.066;5.358;2024-01-30T10:59:40;11.60;99.90
44447;DHT22;30152;52.066;5.358;2024-01-30T11:07:02;12.70;99.90
44447;DHT22;30152;52.066;5.358;2024-01-30T11:11:59;11.50;99.90
44447;DHT22;30152;52.066;5.358;2024-01-30T11:16:58;11.60;99.90
44447;DHT22;30152;52.066;5.358;2024-01-30T11:21:54;11.40;99.90
44447;DHT22;30152;52.066;5.358;2024-01-30T11:36:59;11.50;99.90
44447;DHT22;30152;52.066;5.358;2024-01-30T11:39:25;11.50;99.90
44447;DHT22;30152;52.066;5.358;2024-01-30T11:44:21;11.40;99.90
44447;DHT22;30152;52.066;5.358;2024-01-30T11:46:51;11.40;99.90
44447;DHT22;30152;52.066;5.358;2024-01-30T11:49:17;11.10;99.90
44447;DHT22;30152;52.066;5.358;2024-01-30T11:54:09;11.40;99.90
44447;DHT22;30152;52.066;5.358;2024-01-30T12:03:55;11.30;99.90
44447;DHT22;30152;52.066;5.358;2024-01-30T12:09:01;11.00;99.90
44447;DHT22;30152;52.066;5.358;2024-01-30T12:21:17;10.90;99.90
44447;DHT22;30152;52.066;5.358;2024-01-30T12:23:44;10.60;99.90
44447;DHT22;30152;52.066;5.358;2024-01-30T12:28:36;10.70;99.90
44447;DHT22;30152;52.066;5.358;2024-01-30T12:33:29;10.80;99.90
44447;DHT22;30152;52.066;5.358;2024-01-30T12:36:01;10.30;99.90
44447;DHT22;30152;52.066;5.358;2024-01-30T12:40:56;10.40;99.90
44447;DHT22;30152;52.066;5.358;2024-01-30T12:43:23;10.10;99.90
44447;DHT22;30152;52.066;5.358;2024-01-30T12:48:16;10.10;99.90
44447;DHT22;30152;52.066;5.358;2024-01-30T12:58:00;9.90;99.90
44447;DHT22;30152;52.066;5.358;2024-01-30T13:05:18;9.70;99.90
44447;DHT22;30152;52.066;5.358;2024-01-30T13:10:10;10.10;99.90
44447;DHT22;30152;52.066;5.358;2024-01-30T13:15:06;9.80;99.90
44447;DHT22;30152;52.066;5.358;2024-01-30T13:27:16;9.50;99.90
44447;DHT22;30152;52.066;5.358;2024-01-30T13:29:43;10.20;99.90
44447;DHT22;30152;52.066;5.358;2024-01-30T13:51:40;9.30;99.90
44447;DHT22;30152;52.066;5.358;2024-01-30T14:13:35;9.00;99.90
44447;DHT22;30152;52.066;5.358;2024-01-30T14:30:38;9.60;99.90
44447;DHT22;30152;52.066;5.358;2024-01-30T14:35:30;9.50;99.90
44447;DHT22;30152;52.066;5.358;2024-01-30T15:12:01;8.20;99.90
44447;DHT22;30152;52.066;5.358;2024-01-30T15:16:53;8.70;99.90
44447;DHT22;30152;52.066;5.358;2024-01-30T15:21:44;8.30;99.90
44447;DHT22;30152;52.066;5.358;2024-01-30T15:24:10;8.20;99.90
44447;DHT22;30152;52.066;5.358;2024-01-30T15:26:40;8.20;99.90
44447;DHT22;30152;52.066;5.358;2024-01-30T15:29:05;8.30;99.90
44447;DHT22;30152;52.066;5.358;2024-01-30T15:31:31;8.30;99.90
44447;DHT22;30152;52.066;5.358;2024-01-30T15:33:56;8.20;99.90
44447;DHT22;30152;52.066;5.358;2024-01-30T15:36:23;8.30;99.90
44447;DHT22;30152;52.066;5.358;2024-01-30T15:38:48;8.20;99.90
44447;DHT22;30152;52.066;5.358;2024-01-30T15:41:14;8.20;99.90
44447;DHT22;30152;52.066;5.358;2024-01-30T15:43:39;8.20;99.90
44447;DHT22;30152;52.066;5.358;2024-01-30T15:46:05;8.30;99.90
44447;DHT22;30152;52.066;5.358;2024-01-30T15:48:31;9.60;99.90
44447;DHT22;30152;52.066;5.358;2024-01-30T15:50:57;8.20;99.90
44447;DHT22;30152;52.066;5.358;2024-01-30T15:53:22;8.20;99.90
44447;DHT22;30152;52.066;5.358;2024-01-30T15:55:48;8.30;99.90
44447;DHT22;30152;52.066;5.358;2024-01-30T15:58:14;7.10;99.90
44447;DHT22;30152;52.066;5.358;2024-01-30T16:05:34;8.30;99.90
44447;DHT22;30152;52.066;5.358;2024-01-30T16:07:59;8.20;99.90
44447;DHT22;30152;52.066;5.358;2024-01-30T16:10:25;8.10;99.90
44447;DHT22;30152;52.066;5.358;2024-01-30T16:12:50;8.10;99.90
44447;DHT22;30152;52.066;5.358;2024-01-30T16:15:16;8.90;99.90
44447;DHT22;30152;52.066;5.358;2024-01-30T16:17:43;8.10;99.90
44447;DHT22;30152;52.066;5.358;2024-01-30T16:20:09;8.10;99.90
44447;DHT22;30152;52.066;5.358;2024-01-30T16:22:34;8.10;99.90
44447;DHT22;30152;52.066;5.358;2024-01-30T16:25:03;8.10;99.90
44447;DHT22;30152;52.066;5.358;2024-01-30T16:27:29;8.10;99.90
44447;DHT22;30152;52.066;5.358;2024-01-30T16:29:55;8.20;99.90
44447;DHT22;30152;52.066;5.358;2024-01-30T16:32:20;8.10;99.90
44447;DHT22;30152;52.066;5.358;2024-01-30T16:34:46;8.00;99.90
44447;DHT22;30152;52.066;5.358;2024-01-30T16:37:11;8.10;99.90
44447;DHT22;30152;52.066;5.358;2024-01-30T16:39:37;8.10;99.90
44447;DHT22;30152;52.066;5.358;2024-01-30T16:42:03;8.20;99.90
44447;DHT22;30152;52.066;5.358;2024-01-30T16:44:29;8.10;99.90
44447;DHT22;30152;52.066;5.358;2024-01-30T16:46:54;8.80;99.90
44447;DHT22;30152;52.066;5.358;2024-01-30T16:49:20;8.10;99.90
44447;DHT22;30152;52.066;5.358;2024-01-30T16:51:45;8.10;99.90
44447;DHT22;30152;52.066;5.358;2024-01-30T16:54:11;8.10;99.90
44447;DHT22;30152;52.066;5.358;2024-01-30T16:56:36;8.10;99.90
44447;DHT22;30152;52.066;5.358;2024-01-30T16:59:02;8.10;99.90
44447;DHT22;30152;52.066;5.358;2024-01-30T17:01:27;8.10;99.90
44447;DHT22;30152;52.066;5.358;2024-01-30T17:03:53;8.60;99.90
44447;DHT22;30152;52.066;5.358;2024-01-30T17:06:18;8.10;99.90
44447;DHT22;30152;52.066;5.358;2024-01-30T17:08:44;8.40;99.90
44447;DHT22;30152;52.066;5.358;2024-01-30T17:11:09;8.10;99.90
44447;DHT22;30152;52.066;5.358;2024-01-30T17:13:38;8.10;99.90
44447;DHT22;30152;52.066;5.358;2024-01-30T17:16:03;8.00;99.90
44447;DHT22;30152;52.066;5.358;2024-01-30T17:18:34;8.00;99.90
44447;DHT22;30152;52.066;5.358;2024-01-30T17:21:01;8.00;99.90
44447;DHT22;30152;52.066;5.358;2024-01-30T17:23:26;8.00;99.90
44447;DHT22;30152;52.066;5.358;2024-01-30T17:25:52;8.10;99.90
44447;DHT22;30152;52.066;5.358;2024-01-30T17:28:17;8.00;99.90
44447;DHT22;30152;52.066;5.358;2024-01-30T17:30:43;8.40;99.90
44447;DHT22;30152;52.066;5.358;2024-01-30T17:33:08;8.00;99.90
44447;DHT22;30152;52.066;5.358;2024-01-30T17:35:34;10.60;99.90
44447;DHT22;30152;52.066;5.358;2024-01-30T17:37:59;8.00;99.90
44447;DHT22;30152;52.066;5.358;2024-01-30T17:40:25;8.00;99.90
44447;DHT22;30152;52.066;5.358;2024-01-30T17:42:50;7.90;99.90
44447;DHT22;30152;52.066;5.358;2024-01-30T17:45:15;8.30;99.90
44447;DHT22;30152;52.066;5.358;2024-01-30T17:47:41;8.00;99.90
44447;DHT22;30152;52.066;5.358;2024-01-30T17:50:06;8.00;99.90
44447;DHT22;30152;52.066;5.358;2024-01-30T17:52:32;8.00;99.90
44447;DHT22;30152;52.066;5.358;2024-01-30T17:54:58;7.80;99.90
44447;DHT22;30152;52.066;5.358;2024-01-30T17:57:23;7.90;99.90
44447;DHT22;30152;52.066;5.358;2024-01-30T17:59:48;7.80;99.90
44447;DHT22;30152;52.066;5.358;2024-01-30T18:02:14;7.90;99.90
44447;DHT22;30152;52.066;5.358;2024-01-30T18:04:40;7.80;99.90
44447;DHT22;30152;52.066;5.358;2024-01-30T18:07:05;8.50;99.90
44447;DHT22;30152;52.066;5.358;2024-01-30T18:09:31;7.80;99.90
44447;DHT22;30152;52.066;5.358;2024-01-30T18:11:56;8.10;99.90
44447;DHT22;30152;52.066;5.358;2024-01-30T18:14:22;8.00;99.90
44447;DHT22;30152;52.066;5.358;2024-01-30T18:16:47;7.80;99.90
44447;DHT22;30152;52.066;5.358;2024-01-30T18:19:13;7.70;99.90
44447;DHT22;30152;52.066;5.358;2024-01-30T18:21:39;7.70;99.90
44447;DHT22;30152;52.066;5.358;2024-01-30T18:24:05;7.80;99.90
44447;DHT22;30152;52.066;5.358;2024-01-30T18:26:30;7.70;99.90
44447;DHT22;30152;52.066;5.358;2024-01-30T18:28:56;7.70;99.90
44447;DHT22;30152;52.066;5.358;2024-01-30T18:31:24;7.80;99.90
44447;DHT22;30152;52.066;5.358;2024-01-30T18:33:50;7.70;99.90
44447;DHT22;30152;52.066;5.358;2024-01-30T18:36:18;7.70;99.90
44447;DHT22;30152;52.066;5.358;2024-01-30T18:38:47;7.70;99.90
44447;DHT22;30152;52.066;5.358;2024-01-30T18:41:14;7.60;99.90
44447;DHT22;30152;52.066;5.358;2024-01-30T18:43:39;7.70;99.90
44447;DHT22;30152;52.066;5.358;2024-01-30T18:46:05;7.60;99.90
44447;DHT22;30152;52.066;5.358;2024-01-30T18:48:32;7.70;99.90
44447;DHT22;30152;52.066;5.358;2024-01-30T18:50:57;7.60;99.90
44447;DHT22;30152;52.066;5.358;2024-01-30T18:53:25;7.60;99.90
44447;DHT22;30152;52.066;5.358;2024-01-30T18:55:50;7.60;99.90
44447;DHT22;30152;52.066;5.358;2024-01-30T18:58:16;7.70;99.90
44447;DHT22;30152;52.066;5.358;2024-01-30T19:00:42;7.60;99.90
44447;DHT22;30152;52.066;5.358;2024-01-30T19:03:09;7.50;99.90
44447;DHT22;30152;52.066;5.358;2024-01-30T19:05:34;7.50;99.90
44447;DHT22;30152;52.066;5.358;2024-01-30T19:08:00;7.50;99.90
44447;DHT22;30152;52.066;5.358;2024-01-30T19:10:25;7.50;99.90
44447;DHT22;30152;52.066;5.358;2024-01-30T19:12:55;7.50;99.90
44447;DHT22;30152;52.066;5.358;2024-01-30T19:15:20;7.50;99.90
44447;DHT22;30152;52.066;5.358;2024-01-30T19:17:46;7.40;99.90
44447;DHT22;30152;52.066;5.358;2024-01-30T19:20:11;7.40;99.90
44447;DHT22;30152;52.066;5.358;2024-01-30T19:22:37;7.40;99.90
44447;DHT22;30152;52.066;5.358;2024-01-30T19:25:03;7.50;99.90
44447;DHT22;30152;52.066;5.358;2024-01-30T19:27:30;7.50;99.90
44447;DHT22;30152;52.066;5.358;2024-01-30T19:29:56;7.40;99.90
44447;DHT22;30152;52.066;5.358;2024-01-30T19:32:22;7.40;99.90
44447;DHT22;30152;52.066;5.358;2024-01-30T19:34:47;7.70;99.90
44447;DHT22;30152;52.066;5.358;2024-01-30T19:37:13;8.30;99.90
44447;DHT22;30152;52.066;5.358;2024-01-30T19:39:38;7.50;99.90
44447;DHT22;30152;52.066;5.358;2024-01-30T19:42:04;7.50;99.90
44447;DHT22;30152;52.066;5.358;2024-01-30T19:44:29;7.50;99.90
44447;DHT22;30152;52.066;5.358;2024-01-30T19:46:55;7.40;99.90
44447;DHT22;30152;52.066;5.358;2024-01-30T19:49:20;7.40;99.90
44447;DHT22;30152;52.066;5.358;2024-01-30T19:51:46;7.40;99.90
44447;DHT22;30152;52.066;5.358;2024-01-30T19:54:11;7.30;99.90
44447;DHT22;30152;52.066;5.358;2024-01-30T19:56:43;7.30;99.90
44447;DHT22;30152;52.066;5.358;2024-01-30T19:59:08;7.40;99.90
44447;DHT22;30152;52.066;5.358;2024-01-30T20:01:34;7.40;99.90
44447;DHT22;30152;52.066;5.358;2024-01-30T20:03:59;7.40;99.90
44447;DHT22;30152;52.066;5.358;2024-01-30T20:06:25;7.40;99.90
44447;DHT22;30152;52.066;5.358;2024-01-30T20:08:50;7.40;99.90
44447;DHT22;30152;52.066;5.358;2024-01-30T20:11:16;7.40;99.90
44447;DHT22;30152;52.066;5.358;2024-01-30T20:13:41;7.30;99.90
44447;DHT22;30152;52.066;5.358;2024-01-30T20:16:07;7.40;99.90
44447;DHT22;30152;52.066;5.358;2024-01-30T20:18:32;7.30;99.90
44447;DHT22;30152;52.066;5.358;2024-01-30T20:20:58;7.30;99.90
44447;DHT22;30152;52.066;5.358;2024-01-30T20:23:24;7.40;99.90
44447;DHT22;30152;52.066;5.358;2024-01-30T20:25:49;7.30;99.90
44447;DHT22;30152;52.066;5.358;2024-01-30T20:28:15;7.30;99.90
44447;DHT22;30152;52.066;5.358;2024-01-30T20:30:41;7.40;99.90
44447;DHT22;30152;52.066;5.358;2024-01-30T20:33:07;7.60;99.90
44447;DHT22;30152;52.066;5.358;2024-01-30T20:35:33;7.30;99.90
44447;DHT22;30152;52.066;5.358;2024-01-30T20:37:59;7.60;99.90
44447;DHT22;30152;52.066;5.358;2024-01-30T20:40:24;7.70;99.90
44447;DHT22;30152;52.066;5.358;2024-01-30T20:42:50;7.20;99.90
44447;DHT22;30152;52.066;5.358;2024-01-30T20:45:15;7.70;99.90
44447;DHT22;30152;52.066;5.358;2024-01-30T20:47:40;7.30;99.90
44447;DHT22;30152;52.066;5.358;2024-01-30T20:50:06;7.30;99.90
44447;DHT22;30152;52.066;5.358;2024-01-30T20:52:32;7.20;99.90
44447;DHT22;30152;52.066;5.358;2024-01-30T20:54:57;7.20;99.90
44447;DHT22;30152;52.066;5.358;2024-01-30T20:57:22;7.20;99.90
44447;DHT22;30152;52.066;5.358;2024-01-30T20:59:48;7.10;99.90
44447;DHT22;30152;52.066;5.358;2024-01-30T21:02:13;7.20;99.90
44447;DHT22;30152;52.066;5.358;2024-01-30T21:04:39;7.30;99.90
44447;DHT22;30152;52.066;5.358;2024-01-30T21:07:05;7.60;99.90
44447;DHT22;30152;52.066;5.358;2024-01-30T21:09:31;7.00;99.90
44447;DHT22;30152;52.066;5.358;2024-01-30T21:11:56;7.50;99.90
44447;DHT22;30152;52.066;5.358;2024-01-30T21:14:22;7.00;99.90
44447;DHT22;30152;52.066;5.358;2024-01-30T21:16:47;7.00;99.90
44447;DHT22;30152;52.066;5.358;2024-01-30T21:19:13;6.90;99.90
44447;DHT22;30152;52.066;5.358;2024-01-30T21:21:38;6.90;99.90
44447;DHT22;30152;52.066;5.358;2024-01-30T21:24:04;6.90;99.90
44447;DHT22;30152;52.066;5.358;2024-01-30T21:26:29;6.80;99.90
44447;DHT22;30152;52.066;5.358;2024-01-30T21:28:55;7.60;99.90
44447;DHT22;30152;52.066;5.358;2024-01-30T21:31:20;6.80;99.90
44447;DHT22;30152;52.066;5.358;2024-01-30T21:33:46;6.70;99.90
44447;DHT22;30152;52.066;5.358;2024-01-30T21:36:13;6.60;99.90
44447;DHT22;30152;52.066;5.358;2024-01-30T21:38:38;6.60;99.90
44447;DHT22;30152;52.066;5.358;2024-01-30T21:41:05;6.60;99.90
44447;DHT22;30152;52.066;5.358;2024-01-30T21:43:30;6.50;99.90
44447;DHT22;30152;52.066;5.358;2024-01-30T21:45:55;6.40;99.90
44447;DHT22;30152;52.066;5.358;2024-01-30T21:48:21;6.50;99.90
44447;DHT22;30152;52.066;5.358;2024-01-30T21:50:47;6.40;99.90
44447;DHT22;30152;52.066;5.358;2024-01-30T21:53:12;6.40;99.90
44447;DHT22;30152;52.066;5.358;2024-01-30T21:55:38;6.50;99.90
44447;DHT22;30152;52.066;5.358;2024-01-30T21:58:03;6.30;99.90
44447;DHT22;30152;52.066;5.358;2024-01-30T22:00:29;6.30;99.90
44447;DHT22;30152;52.066;5.358;2024-01-30T22:02:54;6.30;99.90
44447;DHT22;30152;52.066;5.358;2024-01-30T22:05:20;6.30;99.90
44447;DHT22;30152;52.066;5.358;2024-01-30T22:07:45;6.20;99.90
44447;DHT22;30152;52.066;5.358;2024-01-30T22:10:10;6.10;99.90
44447;DHT22;30152;52.066;5.358;2024-01-30T22:12:36;6.10;99.90
44447;DHT22;30152;52.066;5.358;2024-01-30T22:15:05;6.10;99.90
44447;DHT22;30152;52.066;5.358;2024-01-30T22:17:30;6.10;99.90
44447;DHT22;30152;52.066;5.358;2024-01-30T22:19:56;6.10;99.90
44447;DHT22;30152;52.066;5.358;2024-01-30T22:22:21;6.10;99.90
44447;DHT22;30152;52.066;5.358;2024-01-30T22:24:46;6.10;99.90
44447;DHT22;30152;52.066;5.358;2024-01-30T22:27:12;6.00;99.90
44447;DHT22;30152;52.066;5.358;2024-01-30T22:29:38;6.00;99.90
